createdAt,value
2023-09-03T00:01:23.419Z,7.00
2023-09-03T00:03:56.416Z,6.53
2023-09-03T00:06:29.024Z,7.00
2023-09-03T00:09:02.061Z,7.17
2023-09-03T00:11:34.695Z,6.65
2023-09-03T00:14:07.674Z,6.78
2023-09-03T00:16:40.229Z,6.78
2023-09-03T00:19:13.200Z,6.75
2023-09-03T00:21:45.971Z,6.78
2023-09-03T00:24:18.863Z,5.87
2023-09-03T00:26:51.345Z,6.50
2023-09-03T00:29:23.962Z,7.40
2023-09-03T00:31:56.937Z,7.50
2023-09-03T00:34:29.440Z,7.35
2023-09-03T00:37:02.430Z,7.10
2023-09-03T00:39:36.250Z,7.03
2023-09-03T00:42:08.849Z,7.00
2023-09-03T00:44:41.422Z,6.97
2023-09-03T00:47:14.021Z,6.28
2023-09-03T00:49:47.112Z,6.33
2023-09-03T00:52:20.897Z,6.65
2023-09-03T00:57:26.075Z,7.58
2023-09-03T00:59:58.465Z,6.85
2023-09-03T01:02:31.100Z,6.83
2023-09-03T01:05:04.508Z,6.55
2023-09-03T01:07:37.289Z,6.25
2023-09-03T01:10:10.508Z,6.83
2023-09-03T01:13:11.375Z,5.92
2023-09-03T01:15:52.233Z,6.12
2023-09-03T01:18:27.579Z,6.47
2023-09-03T01:21:23.028Z,6.53
2023-09-03T01:27:28.618Z,6.85
2023-09-03T01:30:01.364Z,6.72
2023-09-03T01:32:35.089Z,6.25
2023-09-03T01:35:08.254Z,6.97
2023-09-03T01:37:40.882Z,6.22
2023-09-03T01:40:13.840Z,6.22
2023-09-03T01:42:46.743Z,6.05
2023-09-03T01:45:19.980Z,5.50
2023-09-03T01:47:57.971Z,6.00
2023-09-03T01:50:38.237Z,6.42
2023-09-03T01:53:26.789Z,6.42
2023-09-03T01:55:59.944Z,7.00
2023-09-03T01:58:33.907Z,6.87
2023-09-03T02:01:06.573Z,6.53
2023-09-03T02:03:41.157Z,6.30
2023-09-03T02:06:13.947Z,6.87
2023-09-03T02:08:47.426Z,6.00
2023-09-03T02:11:19.869Z,6.45
2023-09-03T02:13:53.773Z,6.40
2023-09-03T02:16:26.436Z,6.33
2023-09-03T02:18:59.253Z,5.92
2023-09-03T02:21:31.745Z,6.45
2023-09-03T02:24:04.304Z,5.95
2023-09-03T02:26:45.234Z,6.75
2023-09-03T02:29:17.861Z,6.12
2023-09-03T02:31:50.484Z,6.03
2023-09-03T02:34:23.052Z,6.25
2023-09-03T02:36:55.579Z,6.67
2023-09-03T02:39:28.230Z,6.83
2023-09-03T02:42:01.058Z,6.37
2023-09-03T02:44:33.645Z,6.45
2023-09-03T02:47:06.157Z,6.28
2023-09-03T02:49:38.684Z,6.55
2023-09-03T02:52:11.122Z,6.03
2023-09-03T02:54:43.633Z,7.00
2023-09-03T02:57:16.300Z,6.55
2023-09-03T02:59:49.758Z,5.92
2023-09-03T03:02:22.264Z,5.95
2023-09-03T03:04:56.159Z,5.62
2023-09-03T03:07:28.988Z,5.37
2023-09-03T03:10:01.745Z,5.47
2023-09-03T03:12:34.829Z,5.83
2023-09-03T03:15:08.038Z,6.15
2023-09-03T03:17:40.454Z,5.53
2023-09-03T03:20:14.255Z,5.80
2023-09-03T03:22:48.271Z,5.30
2023-09-03T03:25:21.795Z,5.70
2023-09-03T03:27:54.729Z,5.80
2023-09-03T03:30:29.142Z,6.25
2023-09-03T03:33:02.285Z,5.67
2023-09-03T03:35:37.877Z,6.00
2023-09-03T03:38:10.334Z,6.15
2023-09-03T03:40:42.974Z,5.95
2023-09-03T03:43:15.333Z,6.03
2023-09-03T03:45:47.859Z,6.05
2023-09-03T03:48:20.784Z,5.87
2023-09-03T03:50:58.340Z,6.35
2023-09-03T03:53:31.160Z,6.10
2023-09-03T03:56:23.322Z,5.87
2023-09-03T03:58:55.758Z,5.85
2023-09-03T04:01:28.426Z,5.87
2023-09-03T04:04:01.203Z,6.58
2023-09-03T04:06:37.202Z,6.10
2023-09-03T04:09:09.827Z,6.25
2023-09-03T04:11:42.303Z,5.70
2023-09-03T04:14:14.807Z,5.95
2023-09-03T04:16:48.512Z,6.35
2023-09-03T04:19:20.899Z,6.23
2023-09-03T04:21:53.714Z,6.58
2023-09-03T04:24:25.998Z,6.20
2023-09-03T04:26:58.601Z,6.55
2023-09-03T04:29:31.311Z,6.20
2023-09-03T04:32:04.554Z,6.30
2023-09-03T04:34:37.436Z,5.70
2023-09-03T04:37:10.100Z,6.28
2023-09-03T04:39:42.593Z,5.70
2023-09-03T04:42:15.344Z,6.00
2023-09-03T04:44:48.112Z,6.37
2023-09-03T04:47:20.880Z,6.05
2023-09-03T04:49:53.431Z,6.35
2023-09-03T04:52:25.943Z,5.47
2023-09-03T04:54:58.329Z,5.72
2023-09-03T04:57:30.926Z,5.78
2023-09-03T05:00:03.357Z,5.45
2023-09-03T05:02:36.666Z,6.00
2023-09-03T05:05:10.414Z,4.97
2023-09-03T05:07:43.649Z,5.92
2023-09-03T05:10:17.829Z,5.92
2023-09-03T05:12:50.658Z,6.47
2023-09-03T05:15:23.216Z,5.87
2023-09-03T05:17:55.767Z,5.75
2023-09-03T05:20:28.198Z,5.92
2023-09-03T05:23:00.877Z,6.17
2023-09-03T05:25:33.661Z,6.47
2023-09-03T05:28:06.807Z,6.05
2023-09-03T05:30:39.249Z,5.72
2023-09-03T05:33:13.105Z,6.30
2023-09-03T05:35:45.766Z,6.53
2023-09-03T05:38:18.931Z,7.08
2023-09-03T05:40:52.591Z,6.83
2023-09-03T05:43:25.185Z,7.33
2023-09-03T05:45:59.302Z,7.05
2023-09-03T05:48:32.345Z,7.08
2023-09-03T05:51:05.438Z,7.03
2023-09-03T05:53:40.194Z,6.12
2023-09-03T05:56:14.157Z,6.62
2023-09-03T05:58:48.460Z,6.28
2023-09-03T06:01:21.369Z,6.28
2023-09-03T06:03:53.781Z,6.42
2023-09-03T06:06:26.346Z,5.92
2023-09-03T06:08:59.056Z,7.45
2023-09-03T06:11:31.656Z,6.62
2023-09-03T06:14:04.229Z,6.72
2023-09-03T06:16:36.884Z,6.30
2023-09-03T06:19:09.812Z,6.50
2023-09-03T06:21:42.724Z,6.65
2023-09-03T06:24:16.610Z,6.67
2023-09-03T06:26:49.475Z,5.80
2023-09-03T06:29:21.927Z,7.05
2023-09-03T06:31:54.895Z,6.95
2023-09-03T06:34:27.698Z,7.10
2023-09-03T06:37:00.207Z,6.80
2023-09-03T06:39:32.697Z,6.53
2023-09-03T06:42:05.416Z,5.90
2023-09-03T06:44:38.358Z,5.97
2023-09-03T06:47:11.077Z,6.03
2023-09-03T06:49:43.552Z,6.45
2023-09-03T06:52:16.867Z,6.65
2023-09-03T06:54:49.759Z,6.08
2023-09-03T06:57:29.038Z,6.92
2023-09-03T06:59:57.201Z,6.65
2023-09-03T07:02:29.831Z,6.85
2023-09-03T07:05:02.605Z,7.15
2023-09-03T07:07:37.148Z,7.05
2023-09-03T07:12:42.241Z,7.25
2023-09-03T07:15:14.724Z,7.10
2023-09-03T07:17:47.750Z,7.47
2023-09-03T07:20:20.395Z,6.55
2023-09-03T07:22:52.796Z,6.28
2023-09-03T07:25:26.410Z,6.53
2023-09-03T07:27:59.026Z,7.10
2023-09-03T07:30:32.774Z,6.62
2023-09-03T07:33:05.803Z,6.00
2023-09-03T07:35:39.480Z,6.37
2023-09-03T07:38:12.310Z,6.47
2023-09-03T07:40:44.797Z,6.45
2023-09-03T07:43:17.600Z,6.12
2023-09-03T07:45:50.635Z,6.30
2023-09-03T07:48:23.507Z,6.10
2023-09-03T07:50:56.110Z,6.80
2023-09-03T07:53:29.875Z,5.78
2023-09-03T07:56:02.359Z,6.08
2023-09-03T07:58:34.944Z,5.95
2023-09-03T08:01:08.329Z,6.10
2023-09-03T08:03:41.715Z,5.65
2023-09-03T08:06:15.321Z,6.67
2023-09-03T08:08:49.657Z,6.20
2023-09-03T08:11:24.157Z,6.15
2023-09-03T08:14:02.082Z,5.97
2023-09-03T08:16:35.408Z,5.47
2023-09-03T08:19:08.299Z,5.47
2023-09-03T08:21:41.769Z,6.28
2023-09-03T08:24:14.546Z,5.70
2023-09-03T08:26:46.980Z,5.95
2023-09-03T08:29:19.537Z,5.55
2023-09-03T08:31:52.157Z,5.25
2023-09-03T08:34:24.948Z,5.42
2023-09-03T08:36:57.617Z,5.95
2023-09-03T08:39:30.139Z,5.85
2023-09-03T08:42:02.737Z,5.25
2023-09-03T08:44:45.809Z,4.60
2023-09-03T08:47:20.826Z,4.20
2023-09-03T08:49:54.614Z,4.45
2023-09-03T08:52:27.678Z,4.03
2023-09-03T08:55:00.317Z,4.17
2023-09-03T08:57:34.510Z,4.50
2023-09-03T09:00:14.589Z,4.45
2023-09-03T09:02:47.428Z,3.83
2023-09-03T09:05:19.915Z,4.67
2023-09-03T09:07:52.435Z,4.50
2023-09-03T09:10:29.344Z,3.95
2023-09-03T09:13:05.692Z,3.45
2023-09-03T09:15:40.719Z,3.85
2023-09-03T09:18:14.941Z,4.00
2023-09-03T09:20:47.345Z,3.47
2023-09-03T09:23:26.750Z,4.22
2023-09-03T09:26:01.250Z,4.05
2023-09-03T09:28:34.134Z,3.60
2023-09-03T09:31:06.946Z,4.10
2023-09-03T09:33:42.183Z,3.87
2023-09-03T09:36:15.202Z,3.83
2023-09-03T09:38:49.321Z,3.35
2023-09-03T09:44:00.830Z,3.40
2023-09-03T09:46:36.304Z,3.33
2023-09-03T09:49:09.180Z,3.02
2023-09-03T09:51:45.321Z,3.58
2023-09-03T09:54:16.519Z,3.30
2023-09-03T09:56:50.690Z,3.22
2023-09-03T10:01:58.813Z,3.40
2023-09-03T10:04:31.667Z,3.55
2023-09-03T10:07:05.567Z,3.75
2023-09-03T10:09:42.045Z,3.52
2023-09-03T10:12:16.173Z,3.30
2023-09-03T10:17:21.922Z,3.70
2023-09-03T10:20:03.941Z,3.70
2023-09-03T10:22:38.820Z,3.50
2023-09-03T10:25:32.027Z,3.90
2023-09-03T10:28:08.677Z,3.47
2023-09-03T10:30:43.703Z,3.20
2023-09-03T10:33:16.331Z,3.60
2023-09-03T10:36:20.746Z,3.17
2023-09-03T10:38:53.235Z,4.03
2023-09-03T10:41:27.639Z,3.95
2023-09-03T10:44:00.728Z,3.83
2023-09-03T10:46:33.814Z,3.92
2023-09-03T10:49:06.598Z,3.85
2023-09-03T10:51:43.601Z,4.83
2023-09-03T10:54:40.026Z,3.90
2023-09-03T10:57:17.458Z,3.98
2023-09-03T11:00:08.341Z,3.60
2023-09-03T11:02:48.491Z,3.83
2023-09-03T11:05:26.150Z,3.62
2023-09-03T11:08:28.582Z,3.40
2023-09-03T11:11:01.704Z,3.10
2023-09-03T11:13:39.041Z,3.60
2023-09-03T11:16:09.711Z,3.27
2023-09-03T11:18:42.157Z,3.33
2023-09-03T11:21:14.839Z,3.72
2023-09-03T11:24:12.801Z,3.65
2023-09-03T11:26:48.033Z,4.05
2023-09-03T11:29:25.802Z,4.12
2023-09-03T11:32:01.052Z,3.77
2023-09-03T11:34:35.270Z,4.22
2023-09-03T11:37:10.538Z,3.90
2023-09-03T11:39:50.262Z,3.47
2023-09-03T11:42:26.900Z,3.52
2023-09-03T11:47:50.964Z,3.62
2023-09-03T11:50:23.703Z,3.87
2023-09-03T11:53:00.664Z,3.90
2023-09-03T11:55:40.887Z,3.80
2023-09-03T11:58:15.757Z,3.55
2023-09-03T12:00:49.645Z,3.80
2023-09-03T12:03:22.439Z,3.10
2023-09-03T12:05:55.988Z,3.70
2023-09-03T12:08:30.662Z,3.10
2023-09-03T12:11:03.208Z,3.70
2023-09-03T12:13:40.702Z,3.37
2023-09-03T12:16:18.100Z,3.40
2023-09-03T12:19:03.079Z,3.05
2023-09-03T12:21:37.354Z,3.10
2023-09-03T12:24:10.318Z,3.10
2023-09-03T12:26:42.813Z,3.47
2023-09-03T12:29:26.201Z,3.05
2023-09-03T12:31:57.673Z,3.42
2023-09-03T12:34:41.773Z,4.47
2023-09-03T12:37:14.613Z,3.87
2023-09-03T12:39:47.217Z,3.87
2023-09-03T12:42:20.945Z,3.62
2023-09-03T12:47:25.538Z,3.77
2023-09-03T12:49:58.814Z,3.83
2023-09-03T12:52:31.514Z,3.90
2023-09-03T12:55:04.768Z,3.98
2023-09-03T12:57:37.426Z,4.00
2023-09-03T13:00:31.792Z,4.05
2023-09-03T13:03:05.382Z,4.00
2023-09-03T13:05:38.081Z,3.85
2023-09-03T13:08:10.910Z,4.12
2023-09-03T13:10:44.187Z,4.05
2023-09-03T13:13:16.758Z,4.22
2023-09-03T13:15:50.715Z,3.85
2023-09-03T13:18:23.483Z,3.70
2023-09-03T13:20:56.540Z,4.35
2023-09-03T13:23:29.306Z,4.33
2023-09-03T13:26:02.409Z,3.67
2023-09-03T13:28:34.950Z,3.77
2023-09-03T13:31:08.625Z,4.15
2023-09-03T13:36:13.646Z,4.40
2023-09-03T13:38:46.970Z,4.08
2023-09-03T13:41:20.135Z,3.60
2023-09-03T13:43:54.699Z,4.33
2023-09-03T13:46:29.608Z,4.10
2023-09-03T13:49:04.239Z,4.42
2023-09-03T13:51:37.639Z,4.62
2023-09-03T13:54:10.533Z,4.30
2023-09-03T13:56:43.323Z,4.62
2023-09-03T13:59:15.998Z,4.08
2023-09-03T14:01:48.924Z,4.60
2023-09-03T14:04:21.560Z,4.28
2023-09-03T14:06:54.054Z,4.10
2023-09-03T14:09:26.642Z,4.47
2023-09-03T14:12:01.265Z,4.50
2023-09-03T14:14:35.946Z,4.53
2023-09-03T14:17:08.943Z,4.08
2023-09-03T14:19:41.475Z,4.45
2023-09-03T14:22:14.990Z,4.40
2023-09-03T14:24:47.589Z,7.07
2023-09-03T14:27:22.824Z,4.47
2023-09-03T14:29:55.979Z,5.12
2023-09-03T14:32:28.834Z,4.33
2023-09-03T14:35:01.640Z,5.53
2023-09-03T14:37:35.025Z,4.15
2023-09-03T14:40:09.258Z,3.95
2023-09-03T14:45:14.573Z,4.03
2023-09-03T14:47:47.202Z,3.87
2023-09-03T14:50:20.471Z,3.47
2023-09-03T14:52:53.045Z,4.10
2023-09-03T14:55:25.637Z,3.90
2023-09-03T14:57:58.229Z,3.90
2023-09-03T15:00:30.966Z,4.40
2023-09-03T15:03:03.837Z,4.70
2023-09-03T15:05:36.802Z,4.28
2023-09-03T15:08:09.929Z,4.87
2023-09-03T15:10:42.583Z,4.50
2023-09-03T15:13:15.461Z,3.98
2023-09-03T15:15:48.181Z,4.62
2023-09-03T15:18:21.124Z,4.58
2023-09-03T15:20:55.062Z,4.05
2023-09-03T15:23:27.865Z,4.92
2023-09-03T15:26:00.946Z,4.80
2023-09-03T15:28:35.714Z,4.53
2023-09-03T15:31:09.820Z,4.58
2023-09-03T15:33:43.751Z,4.17
2023-09-03T15:36:16.608Z,4.12
2023-09-03T15:38:49.707Z,4.10
2023-09-03T15:41:22.558Z,4.42
2023-09-03T15:43:56.830Z,4.97
2023-09-03T15:46:30.336Z,4.58
2023-09-03T15:49:04.482Z,4.45
2023-09-03T15:54:09.180Z,4.45
2023-09-03T15:56:42.773Z,5.03
2023-09-03T15:59:15.354Z,4.55
2023-09-03T16:01:49.095Z,4.78
2023-09-03T16:04:22.608Z,4.40
2023-09-03T16:06:55.832Z,4.42
2023-09-03T16:09:28.717Z,4.80
2023-09-03T16:12:01.927Z,4.95
2023-09-03T16:14:34.555Z,5.00
2023-09-03T16:17:08.823Z,5.40
2023-09-03T16:22:13.660Z,5.05
2023-09-03T16:24:46.539Z,4.70
2023-09-03T16:27:19.446Z,7.45
2023-09-03T16:29:51.901Z,5.33
2023-09-03T16:32:24.783Z,4.65
2023-09-03T16:34:59.324Z,5.00
2023-09-03T16:40:05.710Z,5.08
2023-09-03T16:45:11.473Z,4.80
2023-09-03T16:47:45.548Z,5.20
2023-09-03T16:50:18.235Z,5.37
2023-09-03T16:52:50.767Z,5.15
2023-09-03T16:55:23.957Z,5.80
2023-09-03T16:57:56.573Z,6.37
2023-09-03T17:00:29.788Z,6.03
2023-09-03T17:03:03.821Z,6.62
2023-09-03T17:05:36.653Z,5.87
2023-09-03T17:08:09.838Z,5.60
2023-09-03T17:10:42.545Z,6.40
2023-09-03T17:13:16.238Z,6.22
2023-09-03T17:15:49.406Z,6.90
2023-09-03T17:18:24.948Z,6.50
2023-09-03T17:21:00.961Z,7.75
2023-09-03T17:23:38.204Z,7.30
2023-09-03T17:26:26.046Z,7.60
2023-09-03T17:31:23.141Z,6.80
2023-09-03T17:33:57.603Z,6.30
2023-09-03T17:36:33.396Z,6.08
2023-09-03T17:39:08.435Z,6.50
2023-09-03T17:41:44.379Z,5.83
2023-09-03T17:44:18.523Z,6.00
2023-09-03T17:46:53.398Z,5.85
2023-09-03T17:49:27.206Z,6.08
2023-09-03T17:51:59.659Z,6.47
2023-09-03T17:54:32.872Z,6.75
2023-09-03T17:57:06.937Z,6.33
2023-09-03T17:59:40.619Z,7.00
2023-09-03T18:02:15.421Z,7.00
2023-09-03T18:04:48.988Z,7.42
2023-09-03T18:07:23.641Z,7.92
2023-09-03T18:10:23.863Z,7.17
2023-09-03T18:12:58.087Z,7.78
2023-09-03T18:15:33.018Z,7.25
2023-09-03T18:18:06.747Z,9.38
2023-09-03T18:20:39.921Z,9.40
2023-09-03T18:23:13.236Z,7.97
2023-09-03T18:25:47.511Z,8.88
2023-09-03T18:28:23.586Z,7.03
2023-09-03T18:31:00.886Z,6.83
2023-09-03T18:33:36.259Z,7.25
2023-09-03T18:36:11.051Z,7.55
2023-09-03T18:38:49.857Z,7.00
2023-09-03T18:41:24.204Z,7.33
2023-09-03T18:43:59.584Z,6.85
2023-09-03T18:49:08.119Z,6.67
2023-09-03T18:51:48.599Z,7.40
2023-09-03T18:54:22.581Z,11.08
2023-09-03T18:57:03.077Z,8.15
2023-09-03T18:59:37.206Z,7.28
2023-09-03T19:02:13.652Z,7.23
2023-09-03T19:04:48.896Z,7.00
2023-09-03T19:07:23.990Z,7.47
2023-09-03T19:09:59.900Z,7.37
2023-09-03T19:12:37.788Z,6.62
2023-09-03T19:15:13.501Z,7.05
2023-09-03T19:17:46.555Z,7.35
2023-09-03T19:20:23.077Z,6.55
2023-09-03T19:22:56.634Z,6.90
2023-09-03T19:25:40.915Z,6.35
2023-09-03T19:28:18.575Z,7.08
2023-09-03T19:30:54.621Z,6.75
2023-09-03T19:33:28.518Z,7.55
2023-09-03T19:36:14.089Z,7.28
2023-09-03T19:38:47.130Z,7.30
2023-09-03T19:41:22.485Z,6.30
2023-09-03T19:43:55.145Z,7.05
2023-09-03T19:46:28.008Z,6.85
2023-09-03T19:49:00.989Z,6.12
2023-09-03T19:51:33.841Z,6.42
2023-09-03T19:54:07.249Z,6.45
2023-09-03T19:56:40.530Z,7.10
2023-09-03T19:59:13.094Z,6.17
2023-09-03T20:01:45.872Z,6.85
2023-09-03T20:04:18.643Z,6.60
2023-09-03T20:06:52.532Z,6.53
2023-09-03T20:09:25.167Z,6.67
2023-09-03T20:11:57.841Z,6.35
2023-09-03T20:14:30.435Z,6.80
2023-09-03T20:17:03.822Z,7.12
2023-09-03T20:19:38.148Z,6.70
2023-09-03T20:22:11.332Z,6.33
2023-09-03T20:24:44.328Z,6.50
2023-09-03T20:27:18.717Z,6.90
2023-09-03T20:29:51.740Z,6.70
2023-09-03T20:32:24.509Z,6.08
2023-09-03T20:34:57.461Z,6.25
2023-09-03T20:37:31.691Z,6.40
2023-09-03T20:40:04.576Z,6.15
2023-09-03T20:42:37.818Z,5.65
2023-09-03T20:45:11.602Z,5.65
2023-09-03T20:47:45.053Z,6.12
2023-09-03T20:50:17.844Z,5.83
2023-09-03T20:52:50.375Z,5.78
2023-09-03T20:55:22.977Z,5.97
2023-09-03T20:57:55.643Z,6.80
2023-09-03T21:00:28.071Z,6.85
2023-09-03T21:03:00.750Z,7.17
2023-09-03T21:05:52.201Z,6.15
2023-09-03T21:08:26.662Z,7.08
2023-09-03T21:11:02.253Z,6.83
2023-09-03T21:13:35.702Z,6.22
2023-09-03T21:16:08.663Z,6.70
2023-09-03T21:18:41.269Z,6.53
2023-09-03T21:21:13.852Z,6.22
2023-09-03T21:23:46.312Z,6.58
2023-09-03T21:26:20.433Z,6.85
2023-09-03T21:28:52.855Z,6.83
2023-09-03T21:31:25.266Z,6.78
2023-09-03T21:33:58.162Z,7.53
2023-09-03T21:36:30.554Z,7.50
2023-09-03T21:39:03.951Z,7.42
2023-09-03T21:41:36.418Z,7.17
2023-09-03T21:44:19.932Z,7.42
2023-09-03T21:46:52.443Z,8.13
2023-09-03T21:49:26.386Z,7.67
2023-09-03T21:51:58.838Z,7.33
2023-09-03T21:54:31.331Z,7.65
2023-09-03T21:57:03.894Z,7.67
2023-09-03T21:59:37.643Z,9.53
2023-09-03T22:02:10.126Z,8.45
2023-09-03T22:04:42.641Z,7.65
2023-09-03T22:07:15.071Z,7.65
2023-09-03T22:09:48.239Z,7.67
2023-09-03T22:12:22.440Z,7.08
2023-09-03T22:14:56.102Z,7.60
2023-09-03T22:17:29.335Z,7.33
2023-09-03T22:20:04.046Z,7.83
2023-09-03T22:22:36.958Z,7.00
2023-09-03T22:25:10.073Z,6.90
2023-09-03T22:27:42.674Z,7.05
2023-09-03T22:30:16.846Z,7.35
2023-09-03T22:32:49.357Z,7.58
2023-09-03T22:35:22.144Z,7.12
2023-09-03T22:37:54.582Z,6.97
2023-09-03T22:40:27.002Z,7.75
2023-09-03T22:42:59.661Z,6.37
2023-09-03T22:45:32.036Z,6.20
2023-09-03T22:48:05.436Z,6.80
2023-09-03T22:50:38.044Z,7.08
2023-09-03T22:53:10.700Z,7.22
2023-09-03T22:55:43.393Z,8.03
2023-09-03T22:58:15.997Z,7.87
2023-09-03T23:00:49.032Z,7.12
2023-09-03T23:03:21.388Z,6.40
2023-09-03T23:05:56.684Z,6.42
2023-09-03T23:08:29.177Z,6.60
2023-09-03T23:11:01.646Z,6.08
2023-09-03T23:13:34.610Z,6.53
2023-09-03T23:16:07.179Z,7.08
2023-09-03T23:18:39.875Z,6.60
2023-09-03T23:21:14.215Z,6.53
2023-09-03T23:23:46.671Z,6.58
2023-09-03T23:26:20.214Z,6.25
2023-09-03T23:28:52.817Z,7.07
2023-09-03T23:31:25.485Z,6.33
2023-09-03T23:33:58.149Z,6.25
2023-09-03T23:36:32.118Z,5.45
2023-09-03T23:39:05.013Z,5.72
2023-09-03T23:41:37.618Z,6.10
2023-09-03T23:44:10.005Z,6.37
2023-09-03T23:46:42.695Z,6.35
2023-09-03T23:49:15.394Z,6.10
2023-09-03T23:51:48.098Z,6.55
2023-09-03T23:54:20.513Z,5.87
2023-09-03T23:56:53.133Z,6.22
2023-09-03T23:59:28.853Z,6.53
